createdAt,value
2017-01-04T00:00:29.860Z,1001.46
2017-01-04T00:01:10.333Z,1001.33
2017-01-04T00:01:50.827Z,1001.43
2017-01-04T00:02:31.295Z,1001.31
2017-01-04T00:03:11.801Z,1001.48
2017-01-04T00:03:52.302Z,1001.43
2017-01-04T00:04:32.784Z,1001.54
2017-01-04T00:05:13.264Z,1001.37
2017-01-04T00:05:53.757Z,1001.56
2017-01-04T00:06:34.212Z,1001.62
2017-01-04T00:07:14.701Z,1001.58
2017-01-04T00:07:55.189Z,1001.64
2017-01-04T00:08:35.696Z,1001.53
2017-01-04T00:09:16.163Z,1001.54
2017-01-04T00:09:56.650Z,1001.62
2017-01-04T00:10:37.113Z,1001.57
2017-01-04T00:11:17.603Z,1001.54
2017-01-04T00:11:58.078Z,1001.86
2017-01-04T00:12:38.588Z,1001.86
2017-01-04T00:13:19.075Z,1002.06
2017-01-04T00:13:59.565Z,1001.89
2017-01-04T00:14:40.054Z,1001.91
2017-01-04T00:15:20.545Z,1002.02
2017-01-04T00:16:01.010Z,1001.79
2017-01-04T00:16:41.499Z,1001.77
2017-01-04T00:17:21.969Z,1001.79
2017-01-04T00:18:02.456Z,1001.76
2017-01-04T00:18:42.956Z,1001.85
2017-01-04T00:19:23.414Z,1001.86
2017-01-04T00:20:03.908Z,1001.82
2017-01-04T00:20:44.392Z,1001.75
2017-01-04T00:21:24.849Z,1001.74
2017-01-04T00:22:05.345Z,1001.69
2017-01-04T00:22:45.829Z,1001.66
2017-01-04T00:23:26.309Z,1001.67
2017-01-04T00:24:06.799Z,1001.68
2017-01-04T00:24:47.267Z,1001.58
2017-01-04T00:25:27.751Z,1001.62
2017-01-04T00:26:08.241Z,1001.61
2017-01-04T00:26:48.729Z,1001.59
2017-01-04T00:27:29.201Z,1001.63
2017-01-04T00:28:09.777Z,1001.66
2017-01-04T00:28:50.277Z,1001.65
2017-01-04T00:29:30.761Z,1001.55
2017-01-04T00:30:11.269Z,1001.63
2017-01-04T00:30:51.737Z,1001.57
2017-01-04T00:31:32.246Z,1001.49
2017-01-04T00:32:12.728Z,1001.53
2017-01-04T00:32:53.214Z,1001.51
2017-01-04T00:33:33.685Z,1001.51
2017-01-04T00:34:14.179Z,1001.59
2017-01-04T00:34:54.656Z,1001.45
2017-01-04T00:35:35.140Z,1001.61
2017-01-04T00:36:15.622Z,1001.53
2017-01-04T00:36:56.109Z,1001.45
2017-01-04T00:37:36.583Z,1001.65
2017-01-04T00:38:17.066Z,1001.5
2017-01-04T00:38:57.579Z,1001.4
2017-01-04T00:39:38.070Z,1001.27
2017-01-04T00:40:18.540Z,1001.48
2017-01-04T00:40:59.027Z,1001.49
2017-01-04T00:41:39.517Z,1001.43
2017-01-04T00:42:19.989Z,1001.44
2017-01-04T00:43:00.481Z,1001.46
2017-01-04T00:43:40.959Z,1001.56
2017-01-04T00:44:21.434Z,1001.34
2017-01-04T00:45:01.950Z,1001.38
2017-01-04T00:45:42.452Z,1001.38
2017-01-04T00:46:22.887Z,1001.4
2017-01-04T00:47:03.360Z,1001.36
2017-01-04T00:47:43.862Z,1001.32
2017-01-04T00:48:24.328Z,1001.37
2017-01-04T00:49:04.819Z,1001.51
2017-01-04T00:49:45.286Z,1001.39
2017-01-04T00:50:25.761Z,1001.55
2017-01-04T00:51:06.254Z,1001.38
2017-01-04T00:51:46.738Z,1001.37
2017-01-04T00:52:27.232Z,1001.3
2017-01-04T00:53:07.716Z,1001.26
2017-01-04T00:53:48.196Z,1001.27
2017-01-04T00:54:28.685Z,1001.36
2017-01-04T00:55:09.187Z,1001.33
2017-01-04T00:55:49.670Z,1001.28
2017-01-04T00:56:30.177Z,1001.36
2017-01-04T00:57:10.651Z,1001.28
2017-01-04T00:57:51.145Z,1001.39
2017-01-04T00:58:31.623Z,1001.22
2017-01-04T00:59:12.114Z,1001.34
2017-01-04T00:59:52.614Z,1001.35
2017-01-04T01:00:33.091Z,1001.31
2017-01-04T01:01:13.569Z,1001.24
2017-01-04T01:01:54.060Z,1001.27
2017-01-04T01:02:34.527Z,1001.32
2017-01-04T01:03:15.007Z,1001.6
2017-01-04T01:03:55.511Z,1001.4
2017-01-04T01:04:36.003Z,1001.36
2017-01-04T01:05:16.518Z,1001.45
2017-01-04T01:05:57.043Z,1001.44
2017-01-04T01:06:37.545Z,1001.44
2017-01-04T01:07:18.034Z,1001.62
2017-01-04T01:07:58.511Z,1001.44
2017-01-04T01:08:38.975Z,1001.32
2017-01-04T01:09:19.444Z,1001.31
2017-01-04T01:09:59.983Z,1001.36
2017-01-04T01:10:40.452Z,1001.42
2017-01-04T01:11:20.955Z,1001.55
2017-01-04T01:12:01.449Z,1001.54
2017-01-04T01:12:41.916Z,1001.29
2017-01-04T01:13:22.409Z,1001.31
2017-01-04T01:14:02.877Z,1001.55
2017-01-04T01:14:43.355Z,1001.46
2017-01-04T01:15:23.857Z,1001.44
2017-01-04T01:16:04.371Z,1001.27
2017-01-04T01:16:44.842Z,1001.42
2017-01-04T01:17:25.332Z,1001.49
2017-01-04T01:18:05.848Z,1001.13
2017-01-04T01:18:46.331Z,1001.41
2017-01-04T01:19:26.798Z,1001.43
2017-01-04T01:20:07.297Z,1001.27
2017-01-04T01:20:47.782Z,1001.35
2017-01-04T01:21:28.326Z,1001.83
2017-01-04T01:22:08.826Z,1001.4
2017-01-04T01:22:49.376Z,1001.36
2017-01-04T01:23:29.863Z,1001.29
2017-01-04T01:24:10.346Z,1001.29
2017-01-04T01:24:50.857Z,1001.32
2017-01-04T01:25:31.339Z,1001.21
2017-01-04T01:26:11.817Z,1001.25
2017-01-04T01:26:52.303Z,1001.21
2017-01-04T01:27:32.770Z,1001.12
2017-01-04T01:28:13.307Z,1001.39
2017-01-04T01:28:53.778Z,1001.3
2017-01-04T01:29:34.275Z,1001.26
2017-01-04T01:30:14.768Z,1001.19
2017-01-04T01:30:55.266Z,1001.11
2017-01-04T01:31:35.718Z,1001.16
2017-01-04T01:32:16.211Z,1001.1
2017-01-04T01:32:56.717Z,1001.07
2017-01-04T01:33:37.213Z,1001.6
2017-01-04T01:34:17.682Z,1001.16
2017-01-04T01:34:58.195Z,1001.31
2017-01-04T01:35:38.680Z,1001.14
2017-01-04T01:36:19.160Z,1001.21
2017-01-04T01:36:59.649Z,1001.36
2017-01-04T01:37:40.122Z,1001.02
2017-01-04T01:38:20.612Z,1001.62
2017-01-04T01:39:01.081Z,1001.28
2017-01-04T01:39:41.582Z,1001.3
2017-01-04T01:40:22.056Z,1001.28
2017-01-04T01:41:02.546Z,1001.05
2017-01-04T01:41:43.050Z,1001.36
2017-01-04T01:42:23.530Z,1001.25
2017-01-04T01:43:04.026Z,1001.24
2017-01-04T01:43:44.514Z,1001.11
2017-01-04T01:44:24.980Z,1001.36
2017-01-04T01:45:05.472Z,1001.11
2017-01-04T01:45:45.957Z,1001.45
2017-01-04T01:46:26.432Z,1001.02
2017-01-04T01:47:06.935Z,1001.04
2017-01-04T01:47:47.392Z,1001.19
2017-01-04T01:48:27.872Z,1000.81
2017-01-04T01:49:08.369Z,1001.02
2017-01-04T01:49:48.812Z,1001.26
2017-01-04T01:50:29.325Z,1001.22
2017-01-04T01:51:09.827Z,1001.14
2017-01-04T01:51:50.272Z,1001.14
2017-01-04T01:52:30.750Z,1001.08
2017-01-04T01:53:11.240Z,1000.96
2017-01-04T01:53:51.746Z,1001.24
2017-01-04T01:54:32.238Z,1000.83
2017-01-04T01:55:12.703Z,1000.87
2017-01-04T01:55:53.286Z,1001.11
2017-01-04T01:56:33.759Z,1001.26
2017-01-04T01:57:14.269Z,1001.19
2017-01-04T01:57:54.756Z,1000.83
2017-01-04T01:58:35.207Z,1000.63
2017-01-04T01:59:15.703Z,1001.2
2017-01-04T01:59:56.199Z,1000.72
2017-01-04T02:00:36.680Z,1000.71
2017-01-04T02:01:17.168Z,1001.06
2017-01-04T02:01:57.650Z,1001.12
2017-01-04T02:02:38.191Z,1000.82
2017-01-04T02:03:18.663Z,1000.6
2017-01-04T02:03:59.144Z,1000.84
2017-01-04T02:04:39.630Z,1000.66
2017-01-04T02:05:20.114Z,1000.69
2017-01-04T02:06:00.593Z,1000.66
2017-01-04T02:06:41.079Z,1000.73
2017-01-04T02:07:21.545Z,1001.27
2017-01-04T02:08:02.056Z,1000.94
2017-01-04T02:08:42.528Z,1000.47
2017-01-04T02:09:23.023Z,1000.94
2017-01-04T02:10:03.495Z,1000.41
2017-01-04T02:10:43.983Z,1000.55
2017-01-04T02:11:24.476Z,1000.53
2017-01-04T02:12:04.978Z,1000.51
2017-01-04T02:12:45.474Z,1000.71
2017-01-04T02:13:25.972Z,1000.65
2017-01-04T02:14:06.468Z,1000.33
2017-01-04T02:14:46.953Z,1000.93
2017-01-04T02:15:27.438Z,1000.51
2017-01-04T02:16:07.956Z,1000.26
2017-01-04T02:16:48.463Z,1000.31
2017-01-04T02:17:28.950Z,1000.45
2017-01-04T02:18:09.435Z,1000.53
2017-01-04T02:18:49.937Z,1000.38
2017-01-04T02:19:30.415Z,1000.25
2017-01-04T02:20:10.913Z,1000.38
2017-01-04T02:20:51.393Z,1000.34
2017-01-04T02:21:31.859Z,1000.5
2017-01-04T02:22:12.439Z,1000.48
2017-01-04T02:22:52.940Z,1000.66
2017-01-04T02:23:33.377Z,1000.55
2017-01-04T02:24:14.044Z,1000.48
2017-01-04T02:24:54.392Z,1000.46
2017-01-04T02:25:34.863Z,1000.54
2017-01-04T02:26:15.331Z,1000.54
2017-01-04T02:26:55.826Z,1000.54
2017-01-04T02:27:36.296Z,1000.65
2017-01-04T02:28:16.807Z,1000.79
2017-01-04T02:28:57.293Z,1000.75
2017-01-04T02:29:39.725Z,1000.38
2017-01-04T02:30:20.218Z,1000.73
2017-01-04T02:31:00.702Z,1000.54
2017-01-04T02:31:41.162Z,1000.58
2017-01-04T02:32:21.659Z,1000.7
2017-01-04T02:33:02.170Z,1000.65
2017-01-04T02:33:42.629Z,1000.85
2017-01-04T02:34:23.109Z,1000.78
2017-01-04T02:35:03.593Z,1000.73
2017-01-04T02:35:44.113Z,1000.62
2017-01-04T02:36:24.582Z,1000.42
2017-01-04T02:37:05.051Z,1000.57
2017-01-04T02:37:45.521Z,1000.4
2017-01-04T02:38:26.007Z,1000.64
2017-01-04T02:39:06.515Z,1000.68
2017-01-04T02:39:46.994Z,1000.46
2017-01-04T02:40:27.464Z,1000.44
2017-01-04T02:41:08.000Z,1000.35
2017-01-04T02:41:48.498Z,1000.44
2017-01-04T02:42:28.973Z,1000.09
2017-01-04T02:43:09.465Z,1000.36
2017-01-04T02:43:49.919Z,1000.24
2017-01-04T02:44:30.406Z,1000.37
2017-01-04T02:45:10.888Z,1000.57
2017-01-04T02:45:51.374Z,1000.35
2017-01-04T02:46:31.850Z,1000.4
2017-01-04T02:47:12.314Z,1000.35
2017-01-04T02:47:52.789Z,1000.26
2017-01-04T02:48:33.300Z,1000.28
2017-01-04T02:49:13.771Z,1000.28
2017-01-04T02:49:54.274Z,1000.21
2017-01-04T02:50:34.743Z,1000.27
2017-01-04T02:51:15.229Z,1000.1
2017-01-04T02:51:55.746Z,1000.53
2017-01-04T02:52:36.251Z,1000.27
2017-01-04T02:53:16.719Z,1000.57
2017-01-04T02:53:57.170Z,1000.66
2017-01-04T02:54:37.679Z,1000.5
2017-01-04T02:55:18.188Z,1000.25
2017-01-04T02:55:58.663Z,1000.15
2017-01-04T02:56:39.129Z,1000.51
2017-01-04T02:57:19.606Z,1000.53
2017-01-04T02:58:00.076Z,1000.23
2017-01-04T02:58:40.568Z,1000.12
2017-01-04T02:59:21.069Z,1000.29
2017-01-04T03:00:01.542Z,1000.2
2017-01-04T03:00:44.565Z,1000.14
2017-01-04T03:01:25.053Z,1000.09
2017-01-04T03:02:05.529Z,1000.26
2017-01-04T03:02:46.007Z,1000.38
2017-01-04T03:03:26.498Z,1000.18
2017-01-04T03:04:06.997Z,1000.29
2017-01-04T03:04:47.485Z,1000.32
2017-01-04T03:05:27.951Z,1000.06
2017-01-04T03:06:08.433Z,1000.31
2017-01-04T03:06:48.947Z,1000.34
2017-01-04T03:07:29.424Z,1000.1
2017-01-04T03:08:09.895Z,1000.08
2017-01-04T03:08:50.384Z,1000.26
2017-01-04T03:09:30.843Z,1000.07
2017-01-04T03:10:11.337Z,1000.12
2017-01-04T03:10:51.822Z,1000.2
2017-01-04T03:11:32.307Z,1000.17
2017-01-04T03:12:12.797Z,999.96
2017-01-04T03:12:53.303Z,999.77
2017-01-04T03:13:33.744Z,999.92
2017-01-04T03:14:14.254Z,999.98
2017-01-04T03:14:54.739Z,1000.14
2017-01-04T03:15:35.258Z,999.96
2017-01-04T03:16:15.703Z,1000.11
2017-01-04T03:16:56.215Z,1000.15
2017-01-04T03:17:36.704Z,999.9
2017-01-04T03:18:17.191Z,1000.22
2017-01-04T03:18:57.659Z,1000.05
2017-01-04T03:19:38.149Z,1000.08
2017-01-04T03:20:18.642Z,999.92
2017-01-04T03:20:59.137Z,1000.42
2017-01-04T03:21:39.626Z,999.85
2017-01-04T03:22:20.104Z,999.95
2017-01-04T03:23:00.593Z,999.97
2017-01-04T03:23:41.065Z,999.9
2017-01-04T03:24:21.532Z,1000.06
2017-01-04T03:25:02.026Z,1000.02
2017-01-04T03:25:42.504Z,999.85
2017-01-04T03:26:23.051Z,999.94
2017-01-04T03:27:03.568Z,999.96
2017-01-04T03:27:44.066Z,999.99
2017-01-04T03:28:24.589Z,1000.03
2017-01-04T03:29:05.055Z,999.97
2017-01-04T03:29:45.550Z,1000.32
2017-01-04T03:30:26.026Z,1000
2017-01-04T03:31:06.505Z,999.92
2017-01-04T03:31:47.032Z,1000.2
2017-01-04T03:32:27.514Z,999.93
2017-01-04T03:33:08.040Z,999.93
2017-01-04T03:33:48.502Z,999.77
2017-01-04T03:34:29.001Z,999.77
2017-01-04T03:35:09.486Z,999.95
2017-01-04T03:35:49.963Z,999.89
2017-01-04T03:36:30.461Z,1000.2
2017-01-04T03:37:10.916Z,999.77
2017-01-04T03:37:51.412Z,999.76
2017-01-04T03:38:31.887Z,999.79
2017-01-04T03:39:12.362Z,1000.36
2017-01-04T03:39:52.847Z,999.66
2017-01-04T03:40:33.375Z,999.64
2017-01-04T03:41:13.826Z,999.56
2017-01-04T03:41:54.320Z,999.48
2017-01-04T03:42:34.784Z,999.39
2017-01-04T03:43:15.280Z,999.61
2017-01-04T03:43:55.766Z,999.57
2017-01-04T03:44:36.269Z,999.55
2017-01-04T03:45:16.753Z,999.57
2017-01-04T03:45:57.232Z,999.83
2017-01-04T03:46:37.728Z,999.8
2017-01-04T03:47:18.219Z,999.49
2017-01-04T03:47:58.715Z,999.38
2017-01-04T03:48:39.188Z,999.42
2017-01-04T03:49:19.666Z,999.53
2017-01-04T03:50:00.158Z,999.42
2017-01-04T03:50:40.647Z,999.63
2017-01-04T03:51:21.112Z,999.57
2017-01-04T03:52:01.622Z,999.6
2017-01-04T03:52:42.120Z,999.51
2017-01-04T03:53:22.587Z,999.77
2017-01-04T03:54:03.082Z,999.54
2017-01-04T03:54:43.564Z,999.61
2017-01-04T03:55:24.056Z,999.5
2017-01-04T03:56:04.516Z,999.66
2017-01-04T03:56:44.989Z,999.6
2017-01-04T03:57:25.480Z,999.66
2017-01-04T03:58:05.939Z,999.76
2017-01-04T03:58:46.435Z,999.42
2017-01-04T03:59:26.930Z,999.55
2017-01-04T04:00:07.411Z,999.58
2017-01-04T04:00:47.911Z,999.7
2017-01-04T04:01:28.405Z,999.57
2017-01-04T04:02:08.883Z,1000
2017-01-04T04:02:49.354Z,999.41
2017-01-04T04:03:29.852Z,999.52
2017-01-04T04:04:10.333Z,999.52
2017-01-04T04:04:50.830Z,999.6
2017-01-04T04:05:31.307Z,999.47
2017-01-04T04:06:11.804Z,999.77
2017-01-04T04:06:52.295Z,999.33
2017-01-04T04:07:32.779Z,999.32
2017-01-04T04:08:13.261Z,999.73
2017-01-04T04:08:53.722Z,999.48
2017-01-04T04:09:34.215Z,999.39
2017-01-04T04:10:14.705Z,999.35
2017-01-04T04:10:55.160Z,999.49
2017-01-04T04:11:35.641Z,999.66
2017-01-04T04:12:16.135Z,999.54
2017-01-04T04:12:56.606Z,999.54
2017-01-04T04:13:37.097Z,999.98
2017-01-04T04:14:17.579Z,999.61
2017-01-04T04:14:58.074Z,999.56
2017-01-04T04:15:38.571Z,999.43
2017-01-04T04:16:19.033Z,999.51
2017-01-04T04:16:59.523Z,999.49
2017-01-04T04:17:39.991Z,999.48
2017-01-04T04:18:20.483Z,999.44
2017-01-04T04:19:00.970Z,999.99
2017-01-04T04:19:41.456Z,1000.04
2017-01-04T04:20:21.952Z,999.66
2017-01-04T04:21:02.420Z,999.54
2017-01-04T04:21:42.909Z,999.54
2017-01-04T04:22:23.399Z,1000.82
2017-01-04T04:23:03.894Z,999.4
2017-01-04T04:23:44.364Z,999.63
2017-01-04T04:24:24.867Z,999.43
2017-01-04T04:25:05.326Z,999.88
2017-01-04T04:25:45.817Z,999.43
2017-01-04T04:26:26.319Z,999.43
2017-01-04T04:27:06.837Z,999.79
2017-01-04T04:27:47.309Z,999.67
2017-01-04T04:28:27.824Z,999.85
2017-01-04T04:29:08.328Z,999.53
2017-01-04T04:29:48.775Z,999.58
2017-01-04T04:30:29.273Z,999.47
2017-01-04T04:31:09.762Z,999.38
2017-01-04T04:31:50.231Z,999.3
2017-01-04T04:32:30.710Z,999.5
2017-01-04T04:33:11.205Z,999.55
2017-01-04T04:33:51.680Z,999.37
2017-01-04T04:34:32.151Z,999.31
2017-01-04T04:35:12.650Z,999.22
2017-01-04T04:35:53.164Z,999.49
2017-01-04T04:36:33.698Z,999.38
2017-01-04T04:37:14.163Z,999.26
2017-01-04T04:37:54.657Z,999.54
2017-01-04T04:38:35.141Z,999.45
2017-01-04T04:39:15.624Z,999.61
2017-01-04T04:39:56.090Z,999.44
2017-01-04T04:40:36.573Z,999.3
2017-01-04T04:41:17.079Z,999.12
2017-01-04T04:41:57.567Z,999.33
2017-01-04T04:42:38.109Z,999.25
2017-01-04T04:43:18.554Z,999.22
2017-01-04T04:43:59.025Z,999.34
2017-01-04T04:44:39.509Z,999.18
2017-01-04T04:45:19.974Z,999.33
2017-01-04T04:46:02.067Z,999.29
2017-01-04T04:46:42.543Z,999.18
2017-01-04T04:47:23.025Z,999.44
2017-01-04T04:48:03.505Z,999.31
2017-01-04T04:48:43.998Z,999.65
2017-01-04T04:49:24.492Z,999.34
2017-01-04T04:50:05.039Z,999.34
2017-01-04T04:50:45.518Z,999.18
2017-01-04T04:51:26.003Z,999.12
2017-01-04T04:52:06.491Z,999.17
2017-01-04T04:52:46.968Z,999.18
2017-01-04T04:53:27.452Z,999.3
2017-01-04T04:54:07.915Z,999.17
2017-01-04T04:54:48.422Z,999.03
2017-01-04T04:55:28.909Z,999.05
2017-01-04T04:56:09.368Z,999.17
2017-01-04T04:56:49.844Z,999.04
2017-01-04T04:57:30.326Z,999.13
2017-01-04T04:58:10.816Z,999.13
2017-01-04T04:58:51.299Z,999.14
2017-01-04T04:59:31.802Z,999.5
2017-01-04T05:00:12.286Z,999.37
2017-01-04T05:00:52.764Z,999.01
2017-01-04T05:01:33.323Z,999.13
2017-01-04T05:02:13.800Z,999.23
2017-01-04T05:02:54.261Z,999.35
2017-01-04T05:03:34.781Z,998.94
2017-01-04T05:04:15.251Z,999.24
2017-01-04T05:04:55.773Z,999.14
2017-01-04T05:05:36.254Z,999.02
2017-01-04T05:06:16.731Z,999.03
2017-01-04T05:06:57.212Z,1000.11
2017-01-04T05:07:37.715Z,999.02
2017-01-04T05:08:18.205Z,999
2017-01-04T05:08:58.688Z,999.12
2017-01-04T05:09:39.170Z,999
2017-01-04T05:10:19.652Z,999.32
2017-01-04T05:11:00.143Z,999.07
2017-01-04T05:11:40.626Z,999.01
2017-01-04T05:12:21.120Z,999.16
2017-01-04T05:13:01.644Z,999.11
2017-01-04T05:13:42.118Z,999.01
2017-01-04T05:14:22.605Z,999.06
2017-01-04T05:15:03.087Z,999.34
2017-01-04T05:15:43.667Z,999.2
2017-01-04T05:16:24.134Z,999
2017-01-04T05:17:04.600Z,999.37
2017-01-04T05:17:45.107Z,999.27
2017-01-04T05:18:25.628Z,999.11
2017-01-04T05:19:06.124Z,999.08
2017-01-04T05:19:46.681Z,999.23
2017-01-04T05:20:27.174Z,999.14
2017-01-04T05:21:07.669Z,999.3
2017-01-04T05:21:48.180Z,999.27
2017-01-04T05:22:28.691Z,999.22
2017-01-04T05:23:09.237Z,999.28
2017-01-04T05:23:49.734Z,999.33
2017-01-04T05:24:30.199Z,999.11
2017-01-04T05:25:10.690Z,999.37
2017-01-04T05:25:51.232Z,999.2
2017-01-04T05:26:31.731Z,999.04
2017-01-04T05:27:12.202Z,998.84
2017-01-04T05:27:52.781Z,999.11
2017-01-04T05:28:33.239Z,999.38
2017-01-04T05:29:20.229Z,999.06
2017-01-04T05:30:00.756Z,999.23
2017-01-04T05:30:41.249Z,998.91
2017-01-04T05:31:21.756Z,999.07
2017-01-04T05:32:02.789Z,999.17
2017-01-04T05:32:43.273Z,999.15
2017-01-04T05:33:23.796Z,999.11
2017-01-04T05:34:04.256Z,999.18
2017-01-04T05:34:44.735Z,999.51
2017-01-04T05:35:25.195Z,999.15
2017-01-04T05:36:05.705Z,998.95
2017-01-04T05:36:46.171Z,999.23
2017-01-04T05:37:26.674Z,999.09
2017-01-04T05:38:07.195Z,998.99
2017-01-04T05:38:47.683Z,999.08
2017-01-04T05:39:28.364Z,999.1
2017-01-04T05:40:08.821Z,999.27
2017-01-04T05:40:49.290Z,999.22
2017-01-04T05:41:29.775Z,999.19
2017-01-04T05:42:10.394Z,999.31
2017-01-04T05:42:50.895Z,998.92
2017-01-04T05:43:31.369Z,999.08
2017-01-04T05:44:11.878Z,999.35
2017-01-04T05:44:52.384Z,999.25
2017-01-04T05:45:32.878Z,999.15
2017-01-04T05:46:13.457Z,999.21
2017-01-04T05:46:54.053Z,999.12
2017-01-04T05:47:34.563Z,999.15
2017-01-04T05:48:15.053Z,999.2
2017-01-04T05:48:55.533Z,999.08
2017-01-04T05:49:36.034Z,999.26
2017-01-04T05:50:16.501Z,999.11
2017-01-04T05:50:56.980Z,999.04
2017-01-04T05:51:37.454Z,999.06
2017-01-04T05:52:17.949Z,999.08
2017-01-04T05:52:58.455Z,999.02
2017-01-04T05:53:38.982Z,999.09
2017-01-04T05:54:19.472Z,999.26
2017-01-04T05:54:59.941Z,999.03
2017-01-04T05:55:40.447Z,999.01
2017-01-04T05:56:20.933Z,999.12
2017-01-04T05:57:01.431Z,998.99
2017-01-04T05:57:42.039Z,999.06
2017-01-04T05:58:22.523Z,999.12
2017-01-04T05:59:03.012Z,998.93
2017-01-04T05:59:43.515Z,998.96
2017-01-04T06:00:23.993Z,998.88
2017-01-04T06:01:04.493Z,999.18
2017-01-04T06:01:44.979Z,998.99
2017-01-04T06:02:25.446Z,998.98
2017-01-04T06:03:05.953Z,999.12
2017-01-04T06:03:46.467Z,998.95
2017-01-04T06:04:26.974Z,998.99
2017-01-04T06:05:07.446Z,999.11
2017-01-04T06:05:47.954Z,998.91
2017-01-04T06:06:28.427Z,999.15
2017-01-04T06:07:08.907Z,998.84
2017-01-04T06:07:49.399Z,999.06
2017-01-04T06:08:29.884Z,999.18
2017-01-04T06:09:10.392Z,999.29
2017-01-04T06:09:50.866Z,999.27
2017-01-04T06:10:31.395Z,999.03
2017-01-04T06:11:11.922Z,998.93
2017-01-04T06:11:52.407Z,998.98
2017-01-04T06:12:32.901Z,998.96
2017-01-04T06:13:13.395Z,999.14
2017-01-04T06:13:53.879Z,999.11
2017-01-04T06:14:34.464Z,999.25
2017-01-04T06:15:14.989Z,999.28
2017-01-04T06:15:55.495Z,999.06
2017-01-04T06:16:35.992Z,999.04
2017-01-04T06:17:16.509Z,999.16
2017-01-04T06:17:57.056Z,998.93
2017-01-04T06:18:37.505Z,998.95
2017-01-04T06:19:18.012Z,998.91
2017-01-04T06:19:58.487Z,998.89
2017-01-04T06:20:39.020Z,998.85
2017-01-04T06:21:19.501Z,999
2017-01-04T06:21:59.978Z,998.8
2017-01-04T06:22:40.465Z,998.99
2017-01-04T06:23:20.943Z,999.14
2017-01-04T06:24:01.425Z,999.22
2017-01-04T06:24:41.907Z,999.33
2017-01-04T06:25:22.411Z,999.09
2017-01-04T06:26:02.895Z,998.92
2017-01-04T06:26:43.391Z,998.91
2017-01-04T06:27:23.893Z,999.21
2017-01-04T06:28:04.384Z,999.07
2017-01-04T06:28:44.859Z,998.97
2017-01-04T06:29:25.340Z,999.01
2017-01-04T06:30:05.827Z,999
2017-01-04T06:30:46.318Z,998.97
2017-01-04T06:31:26.786Z,999
2017-01-04T06:32:07.296Z,999.01
2017-01-04T06:32:47.783Z,999.13
2017-01-04T06:33:28.248Z,999
2017-01-04T06:34:08.744Z,998.95
2017-01-04T06:34:49.241Z,999.06
2017-01-04T06:35:29.752Z,999.06
2017-01-04T06:36:10.262Z,998.98
2017-01-04T06:36:50.756Z,999.18
2017-01-04T06:37:31.358Z,999.1
2017-01-04T06:38:11.865Z,999.19
2017-01-04T06:38:52.346Z,999.18
2017-01-04T06:39:32.850Z,999.07
2017-01-04T06:40:13.333Z,999.03
2017-01-04T06:40:53.843Z,998.95
2017-01-04T06:41:34.363Z,999.03
2017-01-04T06:42:14.844Z,999.1
2017-01-04T06:42:55.321Z,998.92
2017-01-04T06:43:35.833Z,999.38
2017-01-04T06:44:16.305Z,999.19
2017-01-04T06:44:56.797Z,999.44
2017-01-04T06:45:37.270Z,999.06
2017-01-04T06:46:17.760Z,999.23
2017-01-04T06:46:58.250Z,999.27
2017-01-04T06:47:38.735Z,999.37
2017-01-04T06:48:19.232Z,999.29
2017-01-04T06:48:59.756Z,999.22
2017-01-04T06:49:41.011Z,999.13
2017-01-04T06:50:21.489Z,999.25
2017-01-04T06:51:01.964Z,999.33
2017-01-04T06:51:42.509Z,999.32
2017-01-04T06:52:23.054Z,999.21
2017-01-04T06:53:04.007Z,999.25
2017-01-04T06:53:44.572Z,999.29
2017-01-04T06:54:25.145Z,999.22
2017-01-04T06:55:05.623Z,999.06
2017-01-04T06:55:46.103Z,999.31
2017-01-04T06:56:26.623Z,999.21
2017-01-04T06:57:07.124Z,999.27
2017-01-04T06:57:47.613Z,999.05
2017-01-04T06:58:28.127Z,999.16
2017-01-04T06:59:08.664Z,999.21
2017-01-04T06:59:49.203Z,999.11
2017-01-04T07:00:29.763Z,999.28
2017-01-04T07:01:10.274Z,999.28
2017-01-04T07:01:50.781Z,999.53
2017-01-04T07:02:31.293Z,999.59
2017-01-04T07:03:11.790Z,999.49
2017-01-04T07:03:52.283Z,999.43
2017-01-04T07:04:32.765Z,999.62
2017-01-04T07:05:13.260Z,999.78
2017-01-04T07:05:53.738Z,999.67
2017-01-04T07:06:34.204Z,999.59
2017-01-04T07:07:14.703Z,999.8
2017-01-04T07:07:55.208Z,999.52
2017-01-04T07:08:35.698Z,999.43
2017-01-04T07:09:16.169Z,999.32
2017-01-04T07:09:56.644Z,999.24
2017-01-04T07:10:37.152Z,999.25
2017-01-04T07:11:17.649Z,999.33
2017-01-04T07:11:58.148Z,999.26
2017-01-04T07:12:38.703Z,999.19
2017-01-04T07:13:19.214Z,999.26
2017-01-04T07:13:59.719Z,999.18
2017-01-04T07:14:40.219Z,999.22
2017-01-04T07:15:20.710Z,999.38
2017-01-04T07:16:01.211Z,999.52
2017-01-04T07:16:41.720Z,999.29
2017-01-04T07:17:22.208Z,999.38
2017-01-04T07:18:02.670Z,999.21
2017-01-04T07:20:01.771Z,999.25
2017-01-04T07:20:42.255Z,999.22
2017-01-04T07:21:22.774Z,999.16
2017-01-04T07:22:03.260Z,999.17
2017-01-04T07:22:43.779Z,999.14
2017-01-04T07:23:24.395Z,999.17
2017-01-04T07:24:04.865Z,999.09
2017-01-04T07:24:45.444Z,999.14
2017-01-04T07:25:25.916Z,999.13
2017-01-04T07:26:06.439Z,999.26
2017-01-04T07:26:46.903Z,999.04
2017-01-04T07:27:27.372Z,999.18
2017-01-04T07:28:07.866Z,999.24
2017-01-04T07:28:48.364Z,999.16
2017-01-04T07:29:28.852Z,999.11
2017-01-04T07:30:09.316Z,998.93
2017-01-04T07:30:49.933Z,999.18
2017-01-04T07:31:30.395Z,999.09
2017-01-04T07:32:10.866Z,999.25
2017-01-04T07:32:51.345Z,999.11
2017-01-04T07:33:31.827Z,999.2
2017-01-04T07:34:12.302Z,999.02
2017-01-04T07:34:52.816Z,999.06
2017-01-04T07:35:33.336Z,999.09
2017-01-04T07:36:13.858Z,999.13
2017-01-04T07:36:54.335Z,999.12
2017-01-04T07:37:34.876Z,999.06
2017-01-04T07:38:15.337Z,999.4
2017-01-04T07:38:55.818Z,999.13
2017-01-04T07:39:36.314Z,999.01
2017-01-04T07:40:16.801Z,999.1
2017-01-04T07:40:57.276Z,999.21
2017-01-04T07:41:37.776Z,999.2
2017-01-04T07:42:18.272Z,999.13
2017-01-04T07:42:58.824Z,999.22
2017-01-04T07:43:39.311Z,999.36
2017-01-04T07:44:19.786Z,999.16
2017-01-04T07:45:00.261Z,999.07
2017-01-04T07:45:40.728Z,999.21
2017-01-04T07:46:21.203Z,999.27
2017-01-04T07:47:01.671Z,999.27
2017-01-04T07:47:42.154Z,999.37
2017-01-04T07:48:22.689Z,999.28
2017-01-04T07:49:03.167Z,999.29
2017-01-04T07:49:43.659Z,999.27
2017-01-04T07:50:24.154Z,999.23
2017-01-04T07:51:04.631Z,999.33
2017-01-04T07:51:45.109Z,999.44
2017-01-04T07:52:25.803Z,998.96
2017-01-04T07:53:06.311Z,999.42
2017-01-04T07:53:46.783Z,999.24
2017-01-04T07:54:27.271Z,999.19
2017-01-04T07:55:07.772Z,999.65
2017-01-04T07:55:48.268Z,999.37
2017-01-04T07:56:28.788Z,999.38
2017-01-04T07:57:09.261Z,999.3
2017-01-04T07:57:49.756Z,999.48
2017-01-04T07:58:30.297Z,999.4
2017-01-04T07:59:10.817Z,999.46
2017-01-04T07:59:51.271Z,999.36
2017-01-04T08:00:31.779Z,999.79
2017-01-04T08:01:12.319Z,999.74
2017-01-04T08:01:52.823Z,1000.2
2017-01-04T08:02:33.497Z,1000.37
2017-01-04T08:03:14.537Z,1000.26
2017-01-04T08:03:54.987Z,1000.19
2017-01-04T08:04:35.515Z,1000.08
2017-01-04T08:05:16.255Z,1000.14
2017-01-04T08:05:57.619Z,1000.21
2017-01-04T08:06:38.212Z,1000.04
2017-01-04T08:07:18.806Z,999.86
2017-01-04T08:07:59.299Z,999.98
2017-01-04T08:08:39.768Z,999.94
2017-01-04T08:09:20.255Z,1000.07
2017-01-04T08:10:01.154Z,999.9
2017-01-04T08:10:41.762Z,999.77
2017-01-04T08:11:22.354Z,999.78
2017-01-04T08:12:02.830Z,999.73
2017-01-04T08:12:43.332Z,999.67
2017-01-04T08:13:23.839Z,999.7
2017-01-04T08:14:04.361Z,999.85
2017-01-04T08:14:45.715Z,999.76
2017-01-04T08:15:26.394Z,999.91
2017-01-04T08:16:07.208Z,999.91
2017-01-04T08:16:47.704Z,999.81
2017-01-04T08:17:28.170Z,999.78
2017-01-04T08:18:08.736Z,999.73
2017-01-04T08:18:49.233Z,999.82
2017-01-04T08:19:29.843Z,999.78
2017-01-04T08:20:10.325Z,999.7
2017-01-04T08:20:50.968Z,999.69
2017-01-04T08:21:31.561Z,999.73
2017-01-04T08:22:12.058Z,999.59